Terminal Aerodrome Forecast
Issued by NWS

Current Version | Previous Version | Text Only | Print | Product List | Glossary Off
Versions: 1 2 3 4 5 6 7 8 9 10 11 12 13 14 15 16 17 18 19 20

672
FTUS41 KILN 201742
TAFLUK
TAF
KLUK 201742Z 2018/2118 20007KT P6SM VCTS SCT035CB BKN250
      TEMPO 2018/2019 VRB25KT 3SM TSRA BKN035CB
     FM201900 25007KT P6SM SCT040 BKN250
     FM202300 24006KT P6SM SCT150
     FM210700 25004KT 4SM BR VCSH BKN130
     FM211200 VRB03KT P6SM BKN140
     FM211700 26004KT P6SM SCT040=

USA.gov is the U.S. government's official web portal to all federal, state and local government web resources and services.